Time;durP1;ratioP1;P1;durP2;ratioP2;P2;SDS_P1;SDS_P2;PMS_P1;PMS_P2;Temp;Humidity;BMP_temperature;BMP_pressure;BME280_temperature;BME280_humidity;BME280_pressure;Samples;Min_cycle;Max_cycle;Signal;HPM_P1;HPM_P2
2021/03/05 00:00:16;;;;;;;;;;;19.40;50.70;;;;;;5054552;28;1354;-67
2021/03/05 00:02:42;;;;;;;;;;;19.40;50.70;;;;;;5053189;28;1748;-67
2021/03/05 00:05:07;;;;;;;;;;;19.40;50.80;;;;;;5053384;28;1660;-67
2021/03/05 00:07:33;;;;;;;;;;;19.40;50.80;;;;;;5053977;28;1405;-67
2021/03/05 00:09:58;;;;;;;;;;;19.40;50.80;;;;;;5053193;28;1364;-66
2021/03/05 00:12:24;;;;;;;;;;;19.40;50.80;;;;;;5052919;28;1479;-67
2021/03/05 00:14:49;;;;;;;;;;;19.40;50.80;;;;;;5053153;28;1386;-65
2021/03/05 00:17:15;;;;;;;;;;;19.40;50.80;;;;;;5053737;28;1902;-65
2021/03/05 00:19:40;;;;;;;;;;;19.40;50.90;;;;;;5053125;28;1704;-66
2021/03/05 00:22:06;;;;;;;;;;;19.30;50.80;;;;;;5052952;28;1462;-66
2021/03/05 00:24:31;;;;;;;;;;;19.40;50.90;;;;;;5053045;28;1410;-65
2021/03/05 00:26:57;;;;;;;;;;;19.40;50.90;;;;;;5053964;28;1669;-65
2021/03/05 00:29:22;;;;;;;;;;;19.40;50.90;;;;;;5052814;28;1700;-65
2021/03/05 00:31:48;;;;;;;;;;;19.30;50.90;;;;;;5054048;28;1649;-65
2021/03/05 00:34:13;;;;;;;;;;;19.30;50.90;;;;;;5053758;28;1635;-64
2021/03/05 00:36:38;;;;;;;;;;;19.30;51.00;;;;;;5053071;28;1966;-66
2021/03/05 00:39:04;;;;;;;;;;;19.30;51.00;;;;;;5053416;28;1465;-65
2021/03/05 00:41:29;;;;;;;;;;;19.30;51.00;;;;;;5053777;28;1383;-66
2021/03/05 00:43:55;;;;;;;;;;;19.30;51.00;;;;;;5053533;28;1593;-67
2021/03/05 00:46:20;;;;;;;;;;;19.30;51.00;;;;;;5052527;28;1848;-67
2021/03/05 00:48:46;;;;;;;;;;;19.30;51.00;;;;;;5052004;28;933;-67
2021/03/05 00:51:11;;;;;;;;;;;19.30;51.00;;;;;;5053840;28;1868;-65
2021/03/05 00:53:36;;;;;;;;;;;19.30;51.00;;;;;;5053454;28;1402;-66
2021/03/05 00:56:02;;;;;;;;;;;19.30;51.00;;;;;;5053349;28;1950;-65
2021/03/05 00:58:27;;;;;;;;;;;19.30;51.10;;;;;;5052174;28;1714;-65
2021/03/05 01:00:53;;;;;;;;;;;19.30;51.10;;;;;;5053533;28;1564;-65
2021/03/05 01:03:18;;;;;;;;;;;19.30;51.70;;;;;;5053427;28;1405;-65
2021/03/05 01:05:44;;;;;;;;;;;19.30;51.10;;;;;;5053389;28;1322;-65
2021/03/05 01:08:09;;;;;;;;;;;19.30;51.10;;;;;;5053074;28;1589;-65
2021/03/05 01:10:34;;;;;;;;;;;19.30;51.10;;;;;;5051991;28;1751;-65
2021/03/05 01:13:01;;;;;;;;;;;19.30;51.10;;;;;;5041243;28;1423;-63
2021/03/05 01:15:26;;;;;;;;;;;19.30;51.10;;;;;;5053314;28;1485;-65
2021/03/05 01:17:52;;;;;;;;;;;19.30;51.20;;;;;;5052829;28;1894;-65
2021/03/05 01:20:19;;;;;;;;;;;19.30;51.20;;;;;;5050889;28;1292;-64
2021/03/05 01:22:45;;;;;;;;;;;19.30;51.20;;;;;;5046680;28;1333;-66
2021/03/05 01:25:11;;;;;;;;;;;19.20;51.20;;;;;;5031505;28;1329;-65
2021/03/05 01:27:37;;;;;;;;;;;19.20;51.20;;;;;;5051277;28;1355;-66
2021/03/05 01:30:06;;;;;;;;;;;19.20;51.20;;;;;;5052925;28;1296;-64
2021/03/05 01:32:31;;;;;;;;;;;19.20;51.20;;;;;;5052570;28;1361;-66
2021/03/05 01:34:57;;;;;;;;;;;19.20;51.20;;;;;;5046875;28;1220;-65
2021/03/05 01:37:22;;;;;;;;;;;19.20;51.20;;;;;;5044541;28;1956;-64
2021/03/05 01:39:48;;;;;;;;;;;19.20;51.20;;;;;;5043145;28;1220;-64
2021/03/05 01:42:13;;;;;;;;;;;19.20;51.30;;;;;;5044531;28;1367;-64
2021/03/05 01:44:38;;;;;;;;;;;19.20;51.20;;;;;;5043961;28;1319;-64
2021/03/05 01:47:04;;;;;;;;;;;19.20;51.30;;;;;;5042663;28;1329;-66
2021/03/05 01:49:29;;;;;;;;;;;19.20;51.30;;;;;;5045261;28;1300;-64
2021/03/05 01:51:55;;;;;;;;;;;19.20;51.30;;;;;;5044992;28;1333;-65
2021/03/05 01:54:20;;;;;;;;;;;19.20;51.30;;;;;;5046500;28;1399;-65
2021/03/05 01:56:49;;;;;;;;;;;19.20;51.30;;;;;;5048800;28;1965;-66
2021/03/05 01:59:15;;;;;;;;;;;19.20;51.30;;;;;;5043117;28;1307;-65
2021/03/05 02:01:41;;;;;;;;;;;19.20;51.30;;;;;;5043991;28;1371;-66
2021/03/05 02:04:09;;;;;;;;;;;19.20;51.40;;;;;;5043912;28;1819;-67
2021/03/05 02:06:35;;;;;;;;;;;19.20;51.40;;;;;;5043887;28;1386;-65
2021/03/05 02:09:00;;;;;;;;;;;19.10;51.30;;;;;;5043077;28;1333;-64
2021/03/05 02:11:26;;;;;;;;;;;19.10;51.30;;;;;;5042565;28;1336;-65
2021/03/05 02:13:52;;;;;;;;;;;19.10;51.40;;;;;;5043847;28;1308;-66
2021/03/05 02:16:36;;;;;;;;;;;19.10;51.40;;;;;;5040173;28;1957;-65
2021/03/05 02:19:06;;;;;;;;;;;19.10;51.40;;;;;;5042904;28;1131;-64
2021/03/05 02:21:43;;;;;;;;;;;19.10;51.40;;;;;;5020127;28;1348;-64
2021/03/05 02:24:09;;;;;;;;;;;19.10;51.40;;;;;;5041655;28;1364;-66
2021/03/05 02:26:53;;;;;;;;;;;19.10;51.40;;;;;;5043689;28;1330;-64
2021/03/05 02:29:33;;;;;;;;;;;19.10;51.40;;;;;;5043226;28;1207;-64
2021/03/05 02:31:59;;;;;;;;;;;19.10;51.40;;;;;;5044135;28;1298;-66
2021/03/05 02:34:25;;;;;;;;;;;19.10;51.40;;;;;;5064179;23;1932;-69
2021/03/05 02:36:57;;;;;;;;;;;19.10;51.40;;;;;;5057813;28;1971;-70
2021/03/05 02:39:23;;;;;;;;;;;19.10;51.40;;;;;;5039738;28;1239;-70
2021/03/05 02:41:51;;;;;;;;;;;19.10;51.40;;;;;;5060904;28;1418;-69
2021/03/05 02:44:19;;;;;;;;;;;19.10;51.40;;;;;;5038827;28;1185;-69
2021/03/05 02:46:44;;;;;;;;;;;19.10;51.50;;;;;;5026192;28;1184;-71
2021/03/05 02:49:11;;;;;;;;;;;19.10;51.50;;;;;;5023122;28;1247;-70
2021/03/05 02:51:36;;;;;;;;;;;19.10;51.50;;;;;;5018229;28;1372;-69
2021/03/05 02:54:02;;;;;;;;;;;19.10;51.50;;;;;;5047708;28;1448;-69
2021/03/05 02:56:28;;;;;;;;;;;19.10;51.60;;;;;;5047963;28;1926;-69
2021/03/05 02:58:53;;;;;;;;;;;19.10;51.50;;;;;;5047375;28;1378;-69
2021/03/05 03:01:19;;;;;;;;;;;19.10;51.50;;;;;;5050541;28;1675;-69
2021/03/05 03:03:44;;;;;;;;;;;19.10;51.50;;;;;;5051289;28;1400;-69
2021/03/05 03:06:10;;;;;;;;;;;19.10;51.60;;;;;;5028920;28;1735;-69
2021/03/05 03:08:36;;;;;;;;;;;19.10;51.60;;;;;;5012708;28;1209;-67
2021/03/05 03:11:02;;;;;;;;;;;19.10;51.60;;;;;;5028988;28;1387;-68
2021/03/05 03:13:28;;;;;;;;;;;19.10;51.60;;;;;;5005262;28;1351;-68
2021/03/05 03:15:53;;;;;;;;;;;19.10;51.60;;;;;;5024800;28;1910;-69
2021/03/05 03:18:19;;;;;;;;;;;19.10;51.60;;;;;;5023698;28;1351;-69
2021/03/05 03:20:44;;;;;;;;;;;19.10;51.60;;;;;;5025574;28;1182;-69
2021/03/05 03:23:10;;;;;;;;;;;19.10;51.60;;;;;;5023562;28;1355;-69
2021/03/05 03:25:35;;;;;;;;;;;19.00;51.60;;;;;;5025696;28;1260;-69
2021/03/05 03:28:01;;;;;;;;;;;19.10;51.60;;;;;;5023225;28;1430;-69
2021/03/05 03:30:26;;;;;;;;;;;19.10;51.60;;;;;;5028103;28;1619;-69
2021/03/05 03:32:52;;;;;;;;;;;19.00;51.60;;;;;;5023818;28;1283;-69
2021/03/05 03:35:17;;;;;;;;;;;19.00;51.60;;;;;;5025687;28;1341;-69
2021/03/05 03:37:42;;;;;;;;;;;19.00;51.60;;;;;;5023807;28;1953;-68
2021/03/05 03:40:09;;;;;;;;;;;19.00;51.60;;;;;;5024796;28;1613;-68
2021/03/05 03:42:34;;;;;;;;;;;19.00;51.50;;;;;;5022346;28;1459;-69
2021/03/05 03:45:00;;;;;;;;;;;19.00;51.40;;;;;;5033772;28;1367;-68
2021/03/05 03:47:25;;;;;;;;;;;19.00;51.40;;;;;;5033921;28;1382;-68
2021/03/05 03:49:58;;;;;;;;;;;19.10;51.40;;;;;;5033484;28;1706;-68
2021/03/05 03:52:26;;;;;;;;;;;19.10;51.40;;;;;;5033021;28;1196;-68
2021/03/05 03:54:51;;;;;;;;;;;19.10;51.40;;;;;;5034517;28;1100;-68
2021/03/05 03:57:17;;;;;;;;;;;19.10;51.30;;;;;;5032751;28;1898;-69
2021/03/05 03:59:42;;;;;;;;;;;19.10;51.30;;;;;;5033402;28;1069;-69
2021/03/05 04:02:08;;;;;;;;;;;19.10;51.30;;;;;;5033075;28;1257;-69
2021/03/05 04:04:33;;;;;;;;;;;19.20;51.30;;;;;;5034433;28;1165;-68
2021/03/05 04:06:59;;;;;;;;;;;19.20;51.30;;;;;;5016583;28;1381;-68
2021/03/05 04:09:24;;;;;;;;;;;19.20;51.30;;;;;;5019787;28;1108;-68
2021/03/05 04:11:49;;;;;;;;;;;19.20;51.20;;;;;;5020589;28;1387;-68
2021/03/05 04:14:15;;;;;;;;;;;19.20;51.20;;;;;;5032958;28;1319;-69
2021/03/05 04:16:40;;;;;;;;;;;19.30;51.10;;;;;;5033256;28;1945;-68
2021/03/05 04:19:06;;;;;;;;;;;19.40;51.10;;;;;;5032879;28;1246;-68
2021/03/05 04:21:32;;;;;;;;;;;19.40;50.90;;;;;;5034259;28;1096;-68
2021/03/05 04:23:57;;;;;;;;;;;19.50;50.80;;;;;;5032695;28;1220;-69
2021/03/05 04:26:23;;;;;;;;;;;19.60;50.50;;;;;;5034207;28;1143;-68
2021/03/05 04:28:48;;;;;;;;;;;19.80;50.40;;;;;;5033585;28;1378;-69
2021/03/05 04:31:13;;;;;;;;;;;19.90;50.10;;;;;;5034065;28;1346;-68
2021/03/05 04:33:39;;;;;;;;;;;20.00;49.80;;;;;;5032428;28;1403;-69
2021/03/05 04:36:05;;;;;;;;;;;20.20;49.70;;;;;;5033915;28;1902;-68
2021/03/05 04:38:31;;;;;;;;;;;20.30;49.40;;;;;;5033454;28;1285;-69
2021/03/05 04:40:56;;;;;;;;;;;20.40;49.20;;;;;;5023039;28;1068;-68
2021/03/05 04:43:22;;;;;;;;;;;20.50;49.00;;;;;;5030718;28;1369;-69
2021/03/05 04:45:47;;;;;;;;;;;20.60;48.80;;;;;;5033866;28;1339;-68
2021/03/05 04:48:13;;;;;;;;;;;20.70;48.60;;;;;;5033602;28;1414;-68
2021/03/05 04:50:38;;;;;;;;;;;20.70;48.40;;;;;;5033537;28;1402;-69
2021/03/05 04:53:04;;;;;;;;;;;20.80;48.30;;;;;;5033463;28;1269;-68
2021/03/05 04:55:30;;;;;;;;;;;20.80;48.20;;;;;;5032107;28;1379;-68
2021/03/05 04:57:55;;;;;;;;;;;20.90;48.10;;;;;;5032087;28;1894;-68
2021/03/05 05:00:21;;;;;;;;;;;21.00;48.00;;;;;;5033315;28;1236;-69
2021/03/05 05:02:47;;;;;;;;;;;21.00;47.90;;;;;;5032205;28;1317;-69
2021/03/05 05:05:12;;;;;;;;;;;21.10;47.80;;;;;;5033435;28;1088;-68
2021/03/05 05:07:38;;;;;;;;;;;21.10;47.70;;;;;;5031878;28;1313;-68
2021/03/05 05:10:03;;;;;;;;;;;21.20;47.70;;;;;;5031964;28;1136;-68
2021/03/05 05:12:29;;;;;;;;;;;21.20;47.60;;;;;;5032978;28;1211;-68
2021/03/05 05:14:54;;;;;;;;;;;21.30;47.50;;;;;;5031893;28;1076;-68
2021/03/05 05:17:20;;;;;;;;;;;21.30;47.40;;;;;;5031501;28;1906;-68
2021/03/05 05:19:45;;;;;;;;;;;21.30;47.40;;;;;;5033065;28;1386;-69
2021/03/05 05:22:11;;;;;;;;;;;21.40;47.40;;;;;;5032803;28;1108;-68
2021/03/05 05:24:37;;;;;;;;;;;21.40;47.50;;;;;;5032804;28;1290;-68
2021/03/05 05:27:03;;;;;;;;;;;21.40;47.30;;;;;;5033153;28;1303;-68
2021/03/05 05:29:28;;;;;;;;;;;21.40;47.20;;;;;;5032958;28;965;-68
2021/03/05 05:31:54;;;;;;;;;;;21.50;47.20;;;;;;5032727;28;1141;-69
2021/03/05 05:34:19;;;;;;;;;;;21.50;47.70;;;;;;5032843;28;1269;-68
2021/03/05 05:36:45;;;;;;;;;;;21.50;47.10;;;;;;5032873;28;1969;-68
2021/03/05 05:39:10;;;;;;;;;;;21.60;47.10;;;;;;5032740;28;1288;-68
2021/03/05 05:41:35;;;;;;;;;;;21.60;47.00;;;;;;5019767;28;1115;-69
2021/03/05 05:44:01;;;;;;;;;;;21.60;47.00;;;;;;5031489;28;1645;-68
2021/03/05 05:46:26;;;;;;;;;;;21.60;47.00;;;;;;5030450;28;1316;-68
2021/03/05 05:48:52;;;;;;;;;;;21.70;47.00;;;;;;5029547;28;1338;-68
2021/03/05 05:51:20;;;;;;;;;;;21.70;47.50;;;;;;5032323;28;1025;-69
2021/03/05 05:53:46;;;;;;;;;;;21.70;46.90;;;;;;5030941;28;1353;-68
2021/03/05 05:56:12;;;;;;;;;;;21.70;46.90;;;;;;5031724;28;1938;-68
2021/03/05 05:58:37;;;;;;;;;;;21.80;46.80;;;;;;5032478;28;1029;-68
2021/03/05 06:01:03;;;;;;;;;;;21.80;46.80;;;;;;5031560;28;1364;-68
2021/03/05 06:03:28;;;;;;;;;;;21.80;46.80;;;;;;5032504;28;1224;-68
2021/03/05 06:05:57;;;;;;;;;;;21.80;46.80;;;;;;5032632;28;1187;-68
2021/03/05 06:08:22;;;;;;;;;;;21.80;46.70;;;;;;5032100;28;1076;-68
2021/03/05 06:10:48;;;;;;;;;;;21.80;46.70;;;;;;5032726;28;1351;-68
2021/03/05 06:13:13;;;;;;;;;;;21.90;46.70;;;;;;5031135;28;1361;-68
2021/03/05 06:15:39;;;;;;;;;;;21.90;46.70;;;;;;5031391;28;1253;-68
2021/03/05 06:18:04;;;;;;;;;;;21.90;46.70;;;;;;5030780;28;1890;-68
2021/03/05 06:20:43;;;;;;;;;;;21.90;46.70;;;;;;5032529;28;1095;-68
2021/03/05 06:23:11;;;;;;;;;;;21.90;46.70;;;;;;5032150;28;1405;-68
2021/03/05 06:25:37;;;;;;;;;;;21.90;46.70;;;;;;5032653;28;1068;-68
2021/03/05 06:28:15;;;;;;;;;;;21.90;46.70;;;;;;5032066;28;1116;-68
2021/03/05 06:30:40;;;;;;;;;;;21.90;46.70;;;;;;5014734;28;1243;-67
2021/03/05 06:33:21;;;;;;;;;;;21.90;46.70;;;;;;5030876;28;1294;-68
2021/03/05 06:35:47;;;;;;;;;;;21.90;46.80;;;;;;5050090;28;1335;-68
2021/03/05 06:38:13;;;;;;;;;;;21.90;46.90;;;;;;5035682;28;1906;-68
2021/03/05 06:40:38;;;;;;;;;;;21.90;46.90;;;;;;5042762;28;1253;-68
2021/03/05 06:43:04;;;;;;;;;;;21.80;46.90;;;;;;5031856;28;1290;-68
2021/03/05 06:45:35;;;;;;;;;;;21.80;47.00;;;;;;5036063;28;1087;-69
2021/03/05 06:48:07;;;;;;;;;;;21.80;47.00;;;;;;5034352;28;1152;-67
2021/03/05 06:50:38;;;;;;;;;;;21.80;47.10;;;;;;5034589;28;1340;-68
2021/03/05 06:53:19;;;;;;;;;;;21.80;47.10;;;;;;5034760;28;1247;-69
2021/03/05 06:55:44;;;;;;;;;;;21.70;47.10;;;;;;5028662;28;1840;-70
2021/03/05 06:58:09;;;;;;;;;;;21.70;47.30;;;;;;5049332;28;1890;-70
2021/03/05 07:00:35;;;;;;;;;;;21.70;47.30;;;;;;5025383;28;1917;-69
2021/03/05 07:03:01;;;;;;;;;;;21.70;47.40;;;;;;5028747;28;1976;-70
2021/03/05 07:05:46;;;;;;;;;;;21.60;47.40;;;;;;5027414;28;2017;-70
2021/03/05 07:08:11;;;;;;;;;;;21.60;47.50;;;;;;5016782;28;2135;-70
2021/03/05 07:10:36;;;;;;;;;;;21.60;47.60;;;;;;5026063;28;1363;-70
2021/03/05 07:13:02;;;;;;;;;;;21.50;47.50;;;;;;5035451;28;1374;-70
2021/03/05 07:15:27;;;;;;;;;;;21.50;47.60;;;;;;5035310;28;1128;-70
2021/03/05 07:17:53;;;;;;;;;;;21.50;47.70;;;;;;5035047;28;1902;-70
2021/03/05 07:20:18;;;;;;;;;;;21.50;47.80;;;;;;5035575;28;1056;-70
2021/03/05 07:22:46;;;;;;;;;;;21.40;47.80;;;;;;5034058;28;1365;-70
2021/03/05 07:25:13;;;;;;;;;;;21.40;47.90;;;;;;5017524;28;1164;-70
2021/03/05 07:27:39;;;;;;;;;;;21.40;47.90;;;;;;5033573;28;1171;-70
2021/03/05 07:30:09;;;;;;;;;;;21.40;48.00;;;;;;5033979;28;1195;-70
2021/03/05 07:32:38;;;;;;;;;;;21.40;48.00;;;;;;5035083;28;1277;-70
2021/03/05 07:35:05;;;;;;;;;;;21.30;48.10;;;;;;5034021;28;1317;-69
2021/03/05 07:37:30;;;;;;;;;;;21.30;48.20;;;;;;5049918;28;1938;-70
2021/03/05 07:39:57;;;;;;;;;;;21.30;48.30;;;;;;5033024;28;1770;-69
2021/03/05 07:42:22;;;;;;;;;;;21.30;48.30;;;;;;5048491;28;1546;-70
2021/03/05 07:44:48;;;;;;;;;;;21.20;48.30;;;;;;5029392;28;1497;-69
2021/03/05 07:47:14;;;;;;;;;;;21.20;48.30;;;;;;5029428;28;2280;-67
2021/03/05 07:49:39;;;;;;;;;;;21.20;48.40;;;;;;5026757;28;1383;-67
2021/03/05 07:52:05;;;;;;;;;;;21.10;48.40;;;;;;5035780;28;1162;-67
2021/03/05 07:54:40;;;;;;;;;;;21.20;48.50;;;;;;5032821;28;1411;-68
2021/03/05 07:57:25;;;;;;;;;;;21.10;48.50;;;;;;5033930;28;1961;-69
2021/03/05 07:59:51;;;;;;;;;;;21.10;48.50;;;;;;5033737;28;1275;-69
2021/03/05 08:02:17;;;;;;;;;;;21.10;48.60;;;;;;5049984;28;1422;-69
2021/03/05 08:04:53;;;;;;;;;;;21.10;48.60;;;;;;5035081;28;2691;-68
2021/03/05 08:07:19;;;;;;;;;;;21.00;48.60;;;;;;5033808;28;1374;-69
2021/03/05 08:09:44;;;;;;;;;;;21.00;48.70;;;;;;5034694;28;1334;-69
2021/03/05 08:12:32;;;;;;;;;;;21.00;48.80;;;;;;5049183;28;1127;-69
2021/03/05 08:15:07;;;;;;;;;;;21.00;48.80;;;;;;5034392;28;1283;-69
2021/03/05 08:17:32;;;;;;;;;;;21.00;48.90;;;;;;5033973;28;1906;-69
2021/03/05 08:19:58;;;;;;;;;;;20.90;48.80;;;;;;5034182;28;1279;-68
2021/03/05 08:22:23;;;;;;;;;;;20.90;48.90;;;;;;5034085;28;1329;-69
2021/03/05 08:24:49;;;;;;;;;;;20.90;49.00;;;;;;5034056;28;2024;-69
2021/03/05 08:27:15;;;;;;;;;;;20.90;49.00;;;;;;5049194;28;1076;-69
2021/03/05 08:29:46;;;;;;;;;;;20.80;49.00;;;;;;5033923;28;1313;-69
2021/03/05 08:32:30;;;;;;;;;;;20.80;49.10;;;;;;5049418;28;1321;-68
2021/03/05 08:34:56;;;;;;;;;;;20.80;49.10;;;;;;5073158;22;1745;-66
2021/03/05 08:37:28;;;;;;;;;;;20.80;49.20;;;;;;5052247;28;1907;-66
2021/03/05 08:40:12;;;;;;;;;;;20.80;49.20;;;;;;5053546;28;1083;-65
2021/03/05 08:42:41;;;;;;;;;;;20.80;49.30;;;;;;5053778;28;1352;-65
2021/03/05 08:45:16;;;;;;;;;;;20.70;49.30;;;;;;5053299;28;1422;-64
2021/03/05 08:47:43;;;;;;;;;;;20.70;49.40;;;;;;5053418;28;1345;-63
2021/03/05 08:50:08;;;;;;;;;;;20.70;49.40;;;;;;5053459;28;1309;-63
2021/03/05 08:52:34;;;;;;;;;;;20.70;49.40;;;;;;5052619;28;1288;-63
2021/03/05 08:55:02;;;;;;;;;;;20.70;49.50;;;;;;5051926;28;1159;-64
2021/03/05 08:57:27;;;;;;;;;;;20.60;49.40;;;;;;5050854;28;1961;-64
2021/03/05 08:59:53;;;;;;;;;;;20.60;49.50;;;;;;5052022;28;1380;-63
2021/03/05 09:02:18;;;;;;;;;;;20.60;49.50;;;;;;5052133;28;1288;-63
2021/03/05 09:04:44;;;;;;;;;;;20.60;49.50;;;;;;5053574;28;1267;-62
2021/03/05 09:07:13;;;;;;;;;;;20.60;49.60;;;;;;5053323;28;1334;-63
2021/03/05 09:09:38;;;;;;;;;;;20.60;49.60;;;;;;5051937;28;1277;-62
2021/03/05 09:12:13;;;;;;;;;;;20.60;49.60;;;;;;5038577;28;1286;-62
2021/03/05 09:14:42;;;;;;;;;;;20.50;49.60;;;;;;5033082;28;1366;-62
2021/03/05 09:17:07;;;;;;;;;;;20.60;49.70;;;;;;5032944;28;1956;-62
2021/03/05 09:19:40;;;;;;;;;;;20.50;49.70;;;;;;5031632;28;1335;-63
2021/03/05 09:22:06;;;;;;;;;;;20.50;49.70;;;;;;5048361;28;1362;-62
2021/03/05 09:24:58;;;;;;;;;;;20.50;49.70;;;;;;5032669;28;1354;-62
2021/03/05 09:27:24;;;;;;;;;;;20.50;49.80;;;;;;5031495;28;1377;-62
2021/03/05 09:29:50;;;;;;;;;;;20.50;49.80;;;;;;5033002;28;1386;-63
2021/03/05 09:32:15;;;;;;;;;;;20.50;49.80;;;;;;5048274;28;1339;-64
2021/03/05 09:34:47;;;;;;;;;;;20.40;49.80;;;;;;5032617;28;1218;-64
2021/03/05 09:37:16;;;;;;;;;;;20.40;49.90;;;;;;5047237;28;1906;-63
2021/03/05 09:39:42;;;;;;;;;;;20.40;49.90;;;;;;5037339;28;1560;-66
2021/03/05 09:42:07;;;;;;;;;;;20.40;49.90;;;;;;5023301;28;1060;-65
2021/03/05 09:44:39;;;;;;;;;;;20.40;50.00;;;;;;5047459;28;1482;-64
2021/03/05 09:47:05;;;;;;;;;;;20.40;50.00;;;;;;5021424;28;1010;-65
2021/03/05 09:49:30;;;;;;;;;;;20.40;50.00;;;;;;5032269;28;1265;-65
2021/03/05 09:51:56;;;;;;;;;;;20.40;50.10;;;;;;5032762;28;1267;-65
2021/03/05 09:54:34;;;;;;;;;;;20.40;50.70;;;;;;5030954;28;1351;-65
2021/03/05 09:57:00;;;;;;;;;;;20.30;50.10;;;;;;5032219;28;1969;-63
2021/03/05 09:59:38;;;;;;;;;;;20.30;50.10;;;;;;5047687;28;1281;-65
2021/03/05 10:02:03;;;;;;;;;;;20.30;50.10;;;;;;5047861;28;1389;-65
2021/03/05 10:04:29;;;;;;;;;;;20.30;50.10;;;;;;5032490;28;1320;-66
2021/03/05 10:06:54;;;;;;;;;;;20.30;50.20;;;;;;5032825;28;1127;-66
2021/03/05 10:09:20;;;;;;;;;;;20.30;50.20;;;;;;5049162;28;1080;-65
2021/03/05 10:11:45;;;;;;;;;;;20.30;50.20;;;;;;5025104;28;1083;-66
2021/03/05 10:14:11;;;;;;;;;;;20.30;50.30;;;;;;5035152;28;1290;-66
2021/03/05 10:16:37;;;;;;;;;;;20.30;50.30;;;;;;5036290;28;1969;-65
2021/03/05 10:19:13;;;;;;;;;;;20.30;50.30;;;;;;5035955;28;1171;-66
2021/03/05 10:21:41;;;;;;;;;;;20.20;50.30;;;;;;5036499;28;1056;-66
2021/03/05 10:24:08;;;;;;;;;;;20.20;50.30;;;;;;5036150;28;1299;-65
2021/03/05 10:26:33;;;;;;;;;;;20.20;50.30;;;;;;5036617;28;1067;-66
2021/03/05 10:29:05;;;;;;;;;;;20.20;50.40;;;;;;5035664;28;1119;-65
2021/03/05 10:31:41;;;;;;;;;;;20.20;50.40;;;;;;5051714;28;1276;-66
2021/03/05 10:34:06;;;;;;;;;;;20.20;50.40;;;;;;5035831;28;1272;-66
2021/03/05 10:36:31;;;;;;;;;;;20.20;50.50;;;;;;5028562;28;1910;-65
2021/03/05 10:38:57;;;;;;;;;;;20.20;50.50;;;;;;5038131;28;1039;-65
2021/03/05 10:41:22;;;;;;;;;;;20.20;50.50;;;;;;5036430;28;1358;-66
2021/03/05 10:43:48;;;;;;;;;;;20.10;50.50;;;;;;5032477;28;2119;-65
2021/03/05 10:46:13;;;;;;;;;;;20.10;50.50;;;;;;5033740;28;1214;-63
2021/03/05 10:48:38;;;;;;;;;;;20.10;50.50;;;;;;5042561;28;1142;-63
2021/03/05 10:51:04;;;;;;;;;;;20.10;50.50;;;;;;5054807;28;1382;-63
2021/03/05 10:53:29;;;;;;;;;;;20.10;50.60;;;;;;5054450;28;1280;-65
2021/03/05 10:55:55;;;;;;;;;;;20.10;50.60;;;;;;5055520;28;1381;-65
2021/03/05 10:58:20;;;;;;;;;;;20.10;50.60;;;;;;5055329;28;1902;-65
2021/03/05 11:00:46;;;;;;;;;;;20.10;50.60;;;;;;5055592;28;1249;-65
2021/03/05 11:03:12;;;;;;;;;;;20.10;50.70;;;;;;5048131;28;1370;-64
2021/03/05 11:05:37;;;;;;;;;;;20.10;50.60;;;;;;5049659;28;1326;-64
2021/03/05 11:08:03;;;;;;;;;;;20.10;50.70;;;;;;5047878;28;1082;-64
2021/03/05 11:10:28;;;;;;;;;;;20.10;50.70;;;;;;5044913;28;1410;-64
2021/03/05 11:12:54;;;;;;;;;;;20.10;50.70;;;;;;5055268;28;1362;-67
2021/03/05 11:15:19;;;;;;;;;;;20.10;50.70;;;;;;5054224;28;1323;-63
2021/03/05 11:17:45;;;;;;;;;;;20.10;50.70;;;;;;5055182;28;1942;-64
2021/03/05 11:20:11;;;;;;;;;;;20.10;50.70;;;;;;5054814;28;1425;-65
2021/03/05 11:22:36;;;;;;;;;;;20.00;50.70;;;;;;5053869;28;1604;-64
2021/03/05 11:25:02;;;;;;;;;;;20.10;50.70;;;;;;5055156;28;1679;-64
2021/03/05 11:27:28;;;;;;;;;;;20.00;50.70;;;;;;5053723;28;1719;-64
2021/03/05 11:29:53;;;;;;;;;;;20.00;50.70;;;;;;5055229;28;1444;-64
2021/03/05 11:32:19;;;;;;;;;;;20.00;50.70;;;;;;5055337;28;1374;-65
2021/03/05 11:34:44;;;;;;;;;;;20.00;50.80;;;;;;5040952;28;1521;-66
2021/03/05 11:37:10;;;;;;;;;;;20.00;50.80;;;;;;5034934;28;1961;-66
2021/03/05 11:39:35;;;;;;;;;;;20.00;50.80;;;;;;5050417;28;1590;-66
2021/03/05 11:42:01;;;;;;;;;;;20.00;50.80;;;;;;5037255;28;1224;-66
2021/03/05 11:44:27;;;;;;;;;;;20.00;50.80;;;;;;5034792;28;1291;-66
2021/03/05 11:46:52;;;;;;;;;;;20.00;50.80;;;;;;5034813;28;985;-66
2021/03/05 11:49:18;;;;;;;;;;;20.00;50.80;;;;;;5034476;28;1325;-66
2021/03/05 11:51:43;;;;;;;;;;;19.90;50.80;;;;;;5034723;28;1391;-65
2021/03/05 11:54:09;;;;;;;;;;;19.90;50.80;;;;;;5034634;28;1271;-66
2021/03/05 11:56:34;;;;;;;;;;;19.90;50.90;;;;;;5031577;28;2237;-66
2021/03/05 11:59:01;;;;;;;;;;;19.90;50.90;;;;;;5037820;28;1117;-66
2021/03/05 12:01:27;;;;;;;;;;;19.90;51.00;;;;;;5025000;28;1343;-66
2021/03/05 12:03:52;;;;;;;;;;;19.90;51.00;;;;;;5031560;28;1213;-66
2021/03/05 12:06:18;;;;;;;;;;;19.90;50.90;;;;;;5025587;28;1398;-64
2021/03/05 12:08:43;;;;;;;;;;;19.90;50.90;;;;;;5033312;28;1233;-65
2021/03/05 12:11:09;;;;;;;;;;;19.90;50.90;;;;;;5039490;28;1127;-66
2021/03/05 12:13:34;;;;;;;;;;;19.90;50.90;;;;;;5054097;28;1393;-66
2021/03/05 12:16:00;;;;;;;;;;;19.90;50.90;;;;;;5054468;28;1358;-66
2021/03/05 12:18:25;;;;;;;;;;;19.90;50.90;;;;;;5053761;28;1898;-66
2021/03/05 12:20:51;;;;;;;;;;;19.90;50.90;;;;;;5054252;28;1358;-66
2021/03/05 12:23:16;;;;;;;;;;;19.90;50.90;;;;;;5053961;28;1343;-66
2021/03/05 12:25:42;;;;;;;;;;;19.90;50.90;;;;;;5054371;28;1298;-66
2021/03/05 12:28:07;;;;;;;;;;;19.90;50.90;;;;;;5053719;28;1339;-66
2021/03/05 12:30:32;;;;;;;;;;;19.90;50.90;;;;;;5054025;28;1134;-67
2021/03/05 12:32:58;;;;;;;;;;;19.90;50.90;;;;;;5053740;28;1372;-66
2021/03/05 12:35:23;;;;;;;;;;;19.90;50.90;;;;;;5034218;28;1273;-66
2021/03/05 12:37:49;;;;;;;;;;;19.90;50.90;;;;;;5049048;28;1906;-66
2021/03/05 12:40:14;;;;;;;;;;;19.90;50.90;;;;;;5028493;28;1311;-66
2021/03/05 12:42:40;;;;;;;;;;;19.90;50.90;;;;;;5026835;28;1064;-65
2021/03/05 12:45:06;;;;;;;;;;;19.90;50.90;;;;;;5048849;28;1434;-65
2021/03/05 12:47:32;;;;;;;;;;;19.90;50.90;;;;;;5033426;28;1266;-65
2021/03/05 12:49:57;;;;;;;;;;;19.90;50.90;;;;;;5033666;28;1432;-66
2021/03/05 12:52:22;;;;;;;;;;;19.90;51.00;;;;;;5033840;28;1266;-66
2021/03/05 12:54:48;;;;;;;;;;;19.90;50.90;;;;;;5033149;28;1279;-65
2021/03/05 12:57:13;;;;;;;;;;;19.90;50.90;;;;;;5033256;28;1948;-65
2021/03/05 12:59:39;;;;;;;;;;;19.90;50.90;;;;;;5033529;28;1404;-65
2021/03/05 13:02:04;;;;;;;;;;;19.90;50.90;;;;;;5033643;28;1258;-66
2021/03/05 13:04:30;;;;;;;;;;;19.90;50.90;;;;;;5033362;28;1334;-66
2021/03/05 13:06:55;;;;;;;;;;;19.90;50.80;;;;;;5033380;28;1308;-65
2021/03/05 13:09:20;;;;;;;;;;;20.00;50.80;;;;;;5032792;28;1253;-65
2021/03/05 13:11:46;;;;;;;;;;;20.10;50.70;;;;;;5043515;28;1107;-66
2021/03/05 13:14:11;;;;;;;;;;;20.20;50.50;;;;;;5053079;28;1375;-66
2021/03/05 13:16:37;;;;;;;;;;;20.30;50.40;;;;;;5053126;28;1953;-66
2021/03/05 13:19:03;;;;;;;;;;;20.40;50.20;;;;;;5052710;28;1314;-66
2021/03/05 13:21:28;;;;;;;;;;;20.40;50.00;;;;;;5053156;28;1080;-65
2021/03/05 13:23:54;;;;;;;;;;;20.50;49.80;;;;;;5034582;28;1361;-66
2021/03/05 13:26:20;;;;;;;;;;;20.60;49.60;;;;;;5033180;28;1331;-65
2021/03/05 13:28:47;;;;;;;;;;;20.70;49.50;;;;;;5032617;28;1277;-65
2021/03/05 13:31:12;;;;;;;;;;;20.80;49.40;;;;;;5032988;28;1239;-65
2021/03/05 13:33:38;;;;;;;;;;;20.80;49.20;;;;;;5030037;28;2073;-66
2021/03/05 13:36:03;;;;;;;;;;;20.90;49.10;;;;;;5035421;28;1260;-67
2021/03/05 13:38:29;;;;;;;;;;;20.90;48.90;;;;;;5038185;28;1973;-66
2021/03/05 13:40:55;;;;;;;;;;;21.00;48.90;;;;;;5022208;28;1303;-65
2021/03/05 13:43:21;;;;;;;;;;;21.00;48.80;;;;;;5047787;28;1383;-65
2021/03/05 13:45:46;;;;;;;;;;;21.00;48.80;;;;;;5052593;28;1098;-65
2021/03/05 13:48:12;;;;;;;;;;;21.00;48.70;;;;;;5050873;28;1315;-64
2021/03/05 13:50:37;;;;;;;;;;;21.10;48.70;;;;;;5051305;28;1307;-64
2021/03/05 13:53:03;;;;;;;;;;;21.10;48.60;;;;;;5051833;28;1629;-68
2021/03/05 13:55:28;;;;;;;;;;;21.10;48.60;;;;;;5051167;28;1214;-67
2021/03/05 13:57:53;;;;;;;;;;;21.10;48.50;;;;;;5052062;28;1905;-66
2021/03/05 14:00:19;;;;;;;;;;;21.10;48.50;;;;;;5052736;28;1278;-66
2021/03/05 14:02:44;;;;;;;;;;;21.10;48.50;;;;;;5052633;28;1291;-66
2021/03/05 14:05:10;;;;;;;;;;;21.20;48.60;;;;;;5051285;28;1321;-66
2021/03/05 14:07:35;;;;;;;;;;;21.20;48.50;;;;;;5052114;28;1371;-66
2021/03/05 14:10:01;;;;;;;;;;;21.20;48.50;;;;;;5052256;28;1302;-67
2021/03/05 14:12:26;;;;;;;;;;;21.20;48.50;;;;;;5038303;28;1226;-66
2021/03/05 14:14:52;;;;;;;;;;;21.10;48.50;;;;;;5052222;28;1389;-66
2021/03/05 14:17:17;;;;;;;;;;;21.20;48.60;;;;;;5052112;28;1961;-66
2021/03/05 14:19:43;;;;;;;;;;;21.20;48.60;;;;;;5052135;28;1310;-65
2021/03/05 14:22:08;;;;;;;;;;;21.10;48.60;;;;;;5052466;28;1339;-66
2021/03/05 14:24:33;;;;;;;;;;;21.10;48.60;;;;;;5052343;28;1545;-66
2021/03/05 14:26:59;;;;;;;;;;;21.10;48.70;;;;;;5052355;28;1374;-65